createdAt,value
2022-08-19T00:00:44.565Z,12.06
2022-08-19T00:02:16.296Z,10.86
2022-08-19T00:03:53.177Z,12.38
2022-08-19T00:05:24.925Z,12.65
2022-08-19T00:06:56.642Z,10.98
2022-08-19T00:08:33.508Z,14.87
2022-08-19T00:10:05.527Z,12.19
2022-08-19T00:11:37.355Z,12.54
2022-08-19T00:13:08.812Z,14.50
2022-08-19T00:14:45.540Z,12.60
2022-08-19T00:16:17.167Z,11.37
2022-08-19T00:17:48.787Z,12.57
2022-08-19T00:19:20.750Z,12.40
2022-08-19T00:20:57.872Z,11.75
2022-08-19T00:22:29.713Z,11.39
2022-08-19T00:24:01.410Z,12.20
2022-08-19T00:25:33.328Z,12.46
2022-08-19T00:27:26.170Z,11.49
2022-08-19T00:28:58.530Z,10.96
2022-08-19T00:30:30.112Z,12.17
2022-08-19T00:32:01.704Z,12.02
2022-08-19T00:33:33.274Z,10.68
2022-08-19T00:35:04.852Z,11.22
2022-08-19T00:36:36.675Z,13.35
2022-08-19T00:38:08.552Z,13.56
2022-08-19T00:39:45.521Z,13.68
2022-08-19T00:41:21.039Z,15.22
2022-08-19T00:42:52.926Z,13.90
2022-08-19T00:44:26.751Z,13.26
2022-08-19T00:45:59.204Z,14.25
2022-08-19T00:47:30.936Z,14.19
2022-08-19T00:49:02.774Z,14.08
2022-08-19T00:50:34.584Z,13.89
2022-08-19T00:52:06.305Z,13.57
2022-08-19T00:53:38.022Z,14.69
2022-08-19T00:55:09.932Z,16.73
2022-08-19T00:56:41.858Z,17.92
2022-08-19T00:58:13.545Z,14.95
2022-08-19T01:00:00.906Z,15.58
2022-08-19T01:01:35.017Z,15.34
2022-08-19T01:03:06.566Z,15.05
2022-08-19T01:04:38.296Z,15.37
2022-08-19T01:06:10.216Z,15.37
2022-08-19T01:07:41.904Z,14.09
2022-08-19T01:09:13.528Z,11.88
2022-08-19T01:10:45.348Z,11.64
2022-08-19T01:12:17.258Z,11.68
2022-08-19T01:13:50.324Z,15.64
2022-08-19T01:15:21.956Z,15.00
2022-08-19T01:16:53.423Z,14.42
2022-08-19T01:18:25.436Z,14.15
2022-08-19T01:19:57.211Z,14.61
2022-08-19T01:21:28.835Z,13.88
2022-08-19T01:23:00.424Z,13.54
2022-08-19T01:24:32.103Z,15.30
2022-08-19T01:26:08.808Z,13.55
2022-08-19T01:27:43.324Z,13.46
2022-08-19T01:29:15.576Z,12.63
2022-08-19T01:30:50.976Z,13.73
2022-08-19T01:32:33.198Z,13.27
2022-08-19T01:34:05.703Z,13.80
2022-08-19T01:35:37.735Z,12.92
2022-08-19T01:37:09.516Z,12.80
2022-08-19T01:38:44.052Z,13.41
2022-08-19T01:40:16.724Z,16.31
2022-08-19T01:41:48.412Z,14.33
2022-08-19T01:43:20.430Z,14.61
2022-08-19T01:44:52.414Z,15.46
2022-08-19T01:46:29.247Z,15.04
2022-08-19T01:48:07.188Z,15.75
2022-08-19T01:49:39.378Z,15.18
2022-08-19T01:51:11.040Z,14.32
2022-08-19T01:52:42.862Z,13.93
2022-08-19T01:54:27.001Z,14.52
2022-08-19T01:55:59.878Z,13.18
2022-08-19T01:57:31.487Z,12.52
2022-08-19T01:59:03.380Z,12.89
2022-08-19T02:00:40.070Z,13.37
2022-08-19T02:02:21.714Z,14.03
2022-08-19T02:03:53.646Z,16.34
2022-08-19T02:05:28.871Z,15.68
2022-08-19T02:07:00.929Z,16.64
2022-08-19T02:08:32.644Z,15.53
2022-08-19T02:10:08.954Z,17.13
2022-08-19T02:11:44.442Z,17.29
2022-08-19T02:13:16.304Z,16.93
2022-08-19T02:14:54.637Z,16.07
2022-08-19T02:16:26.496Z,18.09
2022-08-19T02:17:58.646Z,15.73
2022-08-19T02:19:30.434Z,16.59
2022-08-19T02:21:02.532Z,16.37
2022-08-19T02:22:34.621Z,17.61
2022-08-19T02:24:06.649Z,16.99
2022-08-19T02:25:38.705Z,19.26
2022-08-19T02:27:10.593Z,18.46
2022-08-19T02:28:42.458Z,19.88
2022-08-19T02:30:14.634Z,16.11
2022-08-19T02:31:56.771Z,17.82
2022-08-19T02:33:28.602Z,17.17
2022-08-19T02:35:00.361Z,16.44
2022-08-19T02:36:32.512Z,15.39
2022-08-19T02:38:04.793Z,16.61
2022-08-19T02:39:36.559Z,17.40
2022-08-19T02:41:08.616Z,15.98
2022-08-19T02:42:40.660Z,16.55
2022-08-19T02:44:29.362Z,14.33
2022-08-19T02:46:02.889Z,16.24
2022-08-19T02:47:34.823Z,16.42
2022-08-19T02:49:06.851Z,14.33
2022-08-19T02:50:39.035Z,16.20
2022-08-19T02:52:11.051Z,16.64
2022-08-19T02:53:43.027Z,15.48
2022-08-19T02:55:14.628Z,13.49
2022-08-19T02:56:46.433Z,14.22
2022-08-19T02:58:18.437Z,14.21
2022-08-19T02:59:51.473Z,15.57
2022-08-19T03:01:23.327Z,15.60
2022-08-19T03:02:55.321Z,15.94
2022-08-19T03:04:27.361Z,16.55
2022-08-19T03:05:59.284Z,15.67
2022-08-19T03:07:37.040Z,17.93
2022-08-19T03:09:08.830Z,17.83
2022-08-19T03:10:40.692Z,16.53
2022-08-19T03:12:13.067Z,16.34
2022-08-19T03:13:44.689Z,15.03
2022-08-19T03:15:16.411Z,15.87
2022-08-19T03:16:48.318Z,17.70
2022-08-19T03:18:20.583Z,18.05
2022-08-19T03:19:55.310Z,18.74
2022-08-19T03:21:27.217Z,18.03
2022-08-19T03:22:58.953Z,17.67
2022-08-19T03:24:30.677Z,21.11
2022-08-19T03:26:15.585Z,20.22
2022-08-19T03:27:53.231Z,20.25
2022-08-19T03:29:30.433Z,19.45
2022-08-19T03:31:03.235Z,20.90
2022-08-19T03:32:35.891Z,23.72
2022-08-19T03:34:17.405Z,22.66
2022-08-19T03:35:49.161Z,21.80
2022-08-19T03:37:20.912Z,20.82
2022-08-19T03:38:56.405Z,22.88
2022-08-19T03:40:31.787Z,21.59
2022-08-19T03:42:33.187Z,23.06
2022-08-19T03:44:19.692Z,19.77
2022-08-19T03:45:51.445Z,18.77
2022-08-19T03:47:28.104Z,18.38
2022-08-19T03:49:00.062Z,17.84
2022-08-19T03:50:31.830Z,18.72
2022-08-19T03:52:03.323Z,17.61
2022-08-19T03:53:35.011Z,18.66
2022-08-19T03:55:06.918Z,18.90
2022-08-19T03:58:39.601Z,20.38
2022-08-19T04:00:14.255Z,22.36
2022-08-19T04:01:46.301Z,21.27
2022-08-19T04:03:18.136Z,22.62
2022-08-19T04:04:54.827Z,23.09
2022-08-19T04:06:26.526Z,21.92
2022-08-19T04:08:03.417Z,21.43
2022-08-19T04:09:35.091Z,21.13
2022-08-19T04:11:06.796Z,24.30
2022-08-19T04:12:38.884Z,21.72
2022-08-19T04:14:10.465Z,23.19
2022-08-19T04:15:42.366Z,22.33
2022-08-19T04:17:14.324Z,22.06
2022-08-19T04:18:46.188Z,22.70
2022-08-19T04:20:22.824Z,22.78
2022-08-19T04:21:54.675Z,23.77
2022-08-19T04:23:26.516Z,20.36
2022-08-19T04:24:58.555Z,22.81
2022-08-19T04:26:30.474Z,20.64
2022-08-19T04:28:02.565Z,20.44
2022-08-19T04:29:34.602Z,22.73
2022-08-19T04:31:06.405Z,21.83
2022-08-19T04:32:38.570Z,20.34
2022-08-19T04:34:10.043Z,21.18
2022-08-19T04:35:41.943Z,20.96
2022-08-19T04:37:16.756Z,19.14
2022-08-19T04:38:48.605Z,19.38
2022-08-19T04:40:20.240Z,19.04
2022-08-19T04:41:52.017Z,20.13
2022-08-19T04:43:23.585Z,23.16
2022-08-19T04:44:57.082Z,21.15
2022-08-19T04:46:40.431Z,22.78
2022-08-19T04:48:28.386Z,20.68
2022-08-19T04:50:00.115Z,20.79
2022-08-19T04:51:37.095Z,21.46
2022-08-19T04:53:09.112Z,19.50
2022-08-19T04:54:41.184Z,19.12
2022-08-19T04:56:12.909Z,21.17
2022-08-19T04:57:44.987Z,22.41
2022-08-19T04:59:16.757Z,24.72
2022-08-19T05:00:48.394Z,23.55
2022-08-19T05:02:20.129Z,21.85
2022-08-19T05:03:52.260Z,22.10
2022-08-19T05:05:23.873Z,22.55
2022-08-19T05:07:01.158Z,24.15
2022-08-19T05:08:33.199Z,23.68
2022-08-19T05:10:05.043Z,24.08
2022-08-19T05:11:36.714Z,24.80
2022-08-19T05:13:08.631Z,26.17
2022-08-19T05:14:40.618Z,25.88
2022-08-19T05:16:12.412Z,26.24
2022-08-19T05:17:44.119Z,26.18
2022-08-19T05:19:15.614Z,25.11
2022-08-19T05:20:47.642Z,26.56
2022-08-19T05:22:19.602Z,27.23
2022-08-19T05:23:51.147Z,30.04
2022-08-19T05:25:23.007Z,28.02
2022-08-19T05:26:54.947Z,27.10
2022-08-19T05:28:26.607Z,26.78
2022-08-19T05:29:58.478Z,27.01
2022-08-19T05:31:30.516Z,26.19
2022-08-19T05:33:02.659Z,26.50
2022-08-19T05:34:39.513Z,29.33
2022-08-19T05:36:11.639Z,29.10
2022-08-19T05:37:43.355Z,26.48
2022-08-19T05:39:15.254Z,26.32
2022-08-19T05:40:47.240Z,29.25
2022-08-19T05:42:19.406Z,26.90
2022-08-19T05:43:51.151Z,24.71
2022-08-19T05:45:22.814Z,26.71
2022-08-19T05:46:54.430Z,27.34
2022-08-19T05:48:26.173Z,25.43
2022-08-19T05:49:57.722Z,24.76
2022-08-19T05:51:29.472Z,25.66
2022-08-19T05:53:01.549Z,24.51
2022-08-19T05:54:33.198Z,25.58
2022-08-19T05:56:04.901Z,23.24
2022-08-19T05:57:42.019Z,25.18
2022-08-19T05:59:18.901Z,25.07
2022-08-19T06:00:50.854Z,25.78
2022-08-19T06:02:22.724Z,26.08
2022-08-19T06:03:55.130Z,24.88
2022-08-19T06:05:26.884Z,22.61
2022-08-19T06:06:58.841Z,23.24
2022-08-19T06:08:33.693Z,20.34
2022-08-19T06:10:05.899Z,21.86
2022-08-19T06:11:37.745Z,24.44
2022-08-19T06:13:14.580Z,23.16
2022-08-19T06:14:46.729Z,23.19
2022-08-19T06:16:28.900Z,25.47
2022-08-19T06:18:00.764Z,23.68
2022-08-19T06:19:32.532Z,25.10
2022-08-19T06:21:04.297Z,25.36
2022-08-19T06:22:36.368Z,27.42
2022-08-19T06:24:08.040Z,24.46
2022-08-19T06:25:39.974Z,24.65
2022-08-19T06:27:13.798Z,26.06
2022-08-19T06:28:50.755Z,26.84
2022-08-19T06:30:22.521Z,24.45
2022-08-19T06:31:54.626Z,25.13
2022-08-19T06:33:26.185Z,24.58
2022-08-19T06:35:02.849Z,23.30
2022-08-19T06:36:34.556Z,23.97
2022-08-19T06:38:06.702Z,24.49
2022-08-19T06:39:38.567Z,23.13
2022-08-19T06:41:10.284Z,22.85
2022-08-19T06:42:49.463Z,23.26
2022-08-19T06:44:27.153Z,23.28
2022-08-19T06:45:59.130Z,22.12
2022-08-19T06:47:30.799Z,23.30
2022-08-19T06:49:02.455Z,22.48
2022-08-19T06:50:35.111Z,21.30
2022-08-19T06:52:13.887Z,23.74
2022-08-19T06:53:46.172Z,22.65
2022-08-19T06:55:19.425Z,22.77
2022-08-19T06:56:51.249Z,20.77
2022-08-19T06:58:23.231Z,21.53
2022-08-19T06:59:54.746Z,20.25
2022-08-19T07:01:26.731Z,21.00
2022-08-19T07:03:01.849Z,21.43
2022-08-19T07:04:36.541Z,23.43
2022-08-19T07:06:09.846Z,22.59
2022-08-19T07:07:53.009Z,21.51
2022-08-19T07:09:24.613Z,24.10
2022-08-19T07:10:56.402Z,22.98
2022-08-19T07:12:27.880Z,22.52
2022-08-19T07:14:01.512Z,20.36
2022-08-19T07:15:33.291Z,21.84
2022-08-19T07:17:04.991Z,22.46
2022-08-19T07:18:37.345Z,21.66
2022-08-19T07:20:15.290Z,21.21
2022-08-19T07:21:50.621Z,20.76
2022-08-19T07:23:22.625Z,20.83
2022-08-19T07:24:56.015Z,23.50
2022-08-19T07:26:28.244Z,21.80
2022-08-19T07:28:01.476Z,21.75
2022-08-19T07:29:33.410Z,20.27
2022-08-19T07:31:07.305Z,25.61
2022-08-19T07:32:41.439Z,22.67
2022-08-19T07:34:13.467Z,23.35
2022-08-19T07:35:45.449Z,21.69
2022-08-19T07:37:17.224Z,21.84
2022-08-19T07:38:51.276Z,21.42
2022-08-19T07:40:23.245Z,22.21
2022-08-19T07:41:55.092Z,23.64
2022-08-19T07:43:34.931Z,19.86
2022-08-19T07:45:07.162Z,22.83
2022-08-19T07:46:38.994Z,21.18
2022-08-19T07:48:10.700Z,21.01
2022-08-19T07:49:42.810Z,22.67
2022-08-19T07:51:14.443Z,22.82
2022-08-19T07:53:01.357Z,21.46
2022-08-19T07:54:33.395Z,21.12
2022-08-19T07:56:05.544Z,24.15
2022-08-19T07:57:42.373Z,24.40
2022-08-19T07:59:39.277Z,21.52
2022-08-19T08:01:11.413Z,23.63
2022-08-19T08:02:43.168Z,22.41
2022-08-19T08:04:14.890Z,21.97
2022-08-19T08:05:46.739Z,23.82
2022-08-19T08:07:18.537Z,25.02
2022-08-19T08:08:50.547Z,26.28
2022-08-19T08:10:24.694Z,23.34
2022-08-19T08:11:57.714Z,25.76
2022-08-19T08:13:33.852Z,25.66
2022-08-19T08:15:08.300Z,26.34
2022-08-19T08:16:47.355Z,22.90
2022-08-19T08:18:19.078Z,23.27
2022-08-19T08:19:50.967Z,25.61
2022-08-19T08:21:23.693Z,24.42
2022-08-19T08:22:55.573Z,22.07
2022-08-19T08:24:28.340Z,23.46
2022-08-19T08:26:00.734Z,20.78
2022-08-19T08:27:34.723Z,20.91
2022-08-19T08:29:12.414Z,19.69
2022-08-19T08:30:50.759Z,19.76
2022-08-19T08:32:22.823Z,17.90
2022-08-19T08:33:59.389Z,17.04
2022-08-19T08:35:30.875Z,16.51
2022-08-19T08:37:02.480Z,17.53
2022-08-19T08:38:38.992Z,16.70
2022-08-19T08:40:13.315Z,16.93
2022-08-19T08:41:45.095Z,16.09
2022-08-19T08:43:21.872Z,18.60
2022-08-19T08:46:31.316Z,17.69
2022-08-19T08:48:04.236Z,18.38
2022-08-19T08:49:54.103Z,18.84
2022-08-19T08:51:25.682Z,19.66
2022-08-19T08:53:06.838Z,20.35
2022-08-19T08:54:38.641Z,21.57
2022-08-19T08:56:11.682Z,19.33
2022-08-19T08:57:43.765Z,18.95
2022-08-19T08:59:15.322Z,18.19
2022-08-19T09:00:47.209Z,21.86
2022-08-19T09:02:19.147Z,23.23
2022-08-19T09:03:51.868Z,19.89
2022-08-19T09:05:26.069Z,20.64
2022-08-19T09:06:58.012Z,22.12
2022-08-19T09:08:29.716Z,20.72
2022-08-19T09:10:02.463Z,21.26
2022-08-19T09:11:41.987Z,23.44
2022-08-19T09:13:14.917Z,22.87
2022-08-19T09:14:50.839Z,20.89
2022-08-19T09:16:28.337Z,19.08
2022-08-19T09:17:59.949Z,19.61
2022-08-19T09:19:31.860Z,17.51
2022-08-19T09:21:04.352Z,16.83
2022-08-19T09:22:36.215Z,17.00
2022-08-19T09:24:07.872Z,18.18
2022-08-19T09:25:39.717Z,20.70
2022-08-19T09:27:18.445Z,18.87
2022-08-19T09:28:50.556Z,19.78
2022-08-19T09:30:23.367Z,18.23
2022-08-19T09:31:54.924Z,21.09
2022-08-19T09:33:26.774Z,20.14
2022-08-19T09:35:01.175Z,21.04
2022-08-19T09:36:35.966Z,20.01
2022-08-19T09:38:07.648Z,20.23
2022-08-19T09:39:42.138Z,18.31
2022-08-19T09:41:13.883Z,19.50
2022-08-19T09:42:50.222Z,15.44
2022-08-19T09:44:24.624Z,18.99
2022-08-19T09:45:58.981Z,19.16
2022-08-19T09:47:30.741Z,19.01
2022-08-19T09:49:06.047Z,21.86
2022-08-19T09:50:38.567Z,23.03
2022-08-19T09:52:10.353Z,24.00
2022-08-19T09:53:45.854Z,24.30
2022-08-19T09:55:17.672Z,25.05
2022-08-19T09:56:54.610Z,26.58
2022-08-19T09:58:31.371Z,28.34
2022-08-19T10:00:03.279Z,28.56
2022-08-19T10:01:40.260Z,27.72
2022-08-19T10:03:12.102Z,29.84
2022-08-19T10:04:43.851Z,30.00
2022-08-19T10:06:17.386Z,32.24
2022-08-19T10:07:49.285Z,36.06
2022-08-19T10:09:33.825Z,33.81
2022-08-19T10:11:28.292Z,31.11
2022-08-19T10:13:06.895Z,23.22
2022-08-19T10:14:39.591Z,19.71
2022-08-19T10:16:11.325Z,17.96
2022-08-19T10:17:46.880Z,16.10
2022-08-19T10:19:25.692Z,14.04
2022-08-19T10:20:57.873Z,13.07
2022-08-19T10:22:29.521Z,15.14
2022-08-19T10:24:03.155Z,13.85
2022-08-19T10:25:39.714Z,14.40
2022-08-19T10:27:15.329Z,14.34
2022-08-19T10:28:48.019Z,13.31
2022-08-19T15:31:50.776Z,6.30
2022-08-19T15:33:22.331Z,7.01
2022-08-19T15:34:53.822Z,7.46
2022-08-19T15:36:25.643Z,7.47
2022-08-19T15:37:57.422Z,8.22
2022-08-19T15:39:29.303Z,9.17
2022-08-19T15:41:00.810Z,9.35
2022-08-19T15:42:32.331Z,6.82
2022-08-19T15:44:03.949Z,7.34
2022-08-19T15:45:35.482Z,9.94
2022-08-19T15:47:07.046Z,7.11
2022-08-19T15:48:38.705Z,8.11
2022-08-19T15:50:10.645Z,7.66
2022-08-19T15:51:42.554Z,5.97
2022-08-19T15:53:14.227Z,7.40
2022-08-19T15:54:45.929Z,8.55
2022-08-19T15:56:17.572Z,6.67
2022-08-19T15:57:49.217Z,7.27
2022-08-19T15:59:20.804Z,6.78
2022-08-19T16:00:52.805Z,7.86
2022-08-19T16:02:32.379Z,7.35
2022-08-19T16:04:04.129Z,8.45
2022-08-19T16:05:35.768Z,7.53
2022-08-19T16:07:07.559Z,8.71
2022-08-19T16:08:49.068Z,8.62
2022-08-19T16:10:27.503Z,10.65
2022-08-19T16:12:01.499Z,8.10
2022-08-19T16:13:33.913Z,7.63
2022-08-19T16:15:05.419Z,7.82
2022-08-19T16:16:37.021Z,7.38
2022-08-19T16:18:08.596Z,9.33
2022-08-19T16:19:40.161Z,8.53
2022-08-19T16:21:11.744Z,8.60
2022-08-19T16:22:43.390Z,8.63
2022-08-19T16:24:14.997Z,8.96
2022-08-19T16:25:46.578Z,9.04
2022-08-19T16:27:18.145Z,9.65
2022-08-19T16:28:49.646Z,10.23
2022-08-19T16:30:22.784Z,9.65
2022-08-19T16:31:54.428Z,8.39
2022-08-19T16:33:26.176Z,9.32
2022-08-19T16:34:57.798Z,7.71
2022-08-19T16:36:29.439Z,10.57
2022-08-19T16:38:03.202Z,8.41
2022-08-19T16:39:34.884Z,11.20
2022-08-19T16:41:06.465Z,10.73
2022-08-19T16:42:38.036Z,13.24
2022-08-19T16:44:09.585Z,11.67
2022-08-19T16:45:46.230Z,9.13
2022-08-19T16:47:17.984Z,9.52
2022-08-19T16:48:49.573Z,9.30
2022-08-19T16:50:29.195Z,9.54
2022-08-19T16:52:05.151Z,9.30
2022-08-19T16:53:36.888Z,11.41
2022-08-19T16:55:08.657Z,10.64
2022-08-19T16:56:40.270Z,11.60
2022-08-19T16:58:11.848Z,11.22
2022-08-19T16:59:48.233Z,9.57
2022-08-19T17:01:20.459Z,9.14
2022-08-19T17:02:52.209Z,10.21
2022-08-19T17:04:23.862Z,10.14
2022-08-19T17:05:55.405Z,9.31
2022-08-19T17:07:29.039Z,8.91
2022-08-19T17:09:00.682Z,10.72
2022-08-19T17:10:32.277Z,7.71
2022-08-19T17:12:04.107Z,8.73
2022-08-19T17:13:35.626Z,9.44
2022-08-19T17:15:31.105Z,8.83
2022-08-19T17:17:03.115Z,8.34
2022-08-19T17:18:34.632Z,8.74
2022-08-19T17:20:06.296Z,11.22
2022-08-19T17:21:37.880Z,9.54
2022-08-19T17:23:12.917Z,10.77
2022-08-19T17:24:46.169Z,11.06
2022-08-19T17:26:18.614Z,10.81
2022-08-19T17:27:50.607Z,11.16
2022-08-19T17:29:22.215Z,9.80
2022-08-19T17:30:53.811Z,9.78
2022-08-19T17:32:25.437Z,10.82
2022-08-19T17:33:57.019Z,11.76
2022-08-19T17:35:28.650Z,11.18
2022-08-19T17:37:00.162Z,10.16
2022-08-19T17:38:31.613Z,11.29
2022-08-19T17:40:03.199Z,13.17
2022-08-19T17:41:34.680Z,13.82
2022-08-19T17:43:06.136Z,10.93
2022-08-19T17:44:37.772Z,15.17
2022-08-19T17:46:11.029Z,12.13
2022-08-19T17:47:42.882Z,12.33
2022-08-19T17:49:14.453Z,14.46
2022-08-19T17:50:46.079Z,12.45
2022-08-19T17:52:19.453Z,13.42
2022-08-19T17:53:51.102Z,13.28
2022-08-19T17:55:22.641Z,12.57
2022-08-19T17:56:54.197Z,13.42
2022-08-19T17:58:25.662Z,12.74
2022-08-19T17:59:58.017Z,12.89
2022-08-19T18:01:37.782Z,11.29
2022-08-19T18:03:25.825Z,13.64
2022-08-19T18:04:57.534Z,12.01
2022-08-19T18:06:29.063Z,13.64
2022-08-19T18:08:00.561Z,14.28
2022-08-19T18:09:42.546Z,12.01
2022-08-19T18:11:14.452Z,13.44
2022-08-19T18:12:45.887Z,13.89
2022-08-19T18:14:17.397Z,14.69
2022-08-19T18:15:48.904Z,13.56
2022-08-19T18:17:20.392Z,13.33
2022-08-19T18:18:51.996Z,13.71
2022-08-19T18:20:23.502Z,14.24
2022-08-19T18:21:55.824Z,13.89
2022-08-19T18:23:41.320Z,13.68
2022-08-19T18:25:17.430Z,13.73
2022-08-19T18:26:48.977Z,13.29
2022-08-19T18:28:20.539Z,13.45
2022-08-19T18:29:52.194Z,14.45
2022-08-19T18:31:24.016Z,14.08
2022-08-19T18:32:55.539Z,12.61
2022-08-19T18:34:27.057Z,14.09
2022-08-19T18:35:58.535Z,14.32
2022-08-19T18:37:30.213Z,14.51
2022-08-19T18:39:06.789Z,13.52
2022-08-19T18:40:39.656Z,15.77
2022-08-19T18:42:11.140Z,13.92
2022-08-19T18:43:43.369Z,14.43
2022-08-19T18:45:15.295Z,15.46
2022-08-19T18:46:47.107Z,13.86
2022-08-19T18:48:27.396Z,14.88
2022-08-19T18:49:59.764Z,14.12
2022-08-19T18:51:31.362Z,14.77
2022-08-19T18:53:03.073Z,14.95
2022-08-19T18:54:34.775Z,15.23
2022-08-19T18:56:06.664Z,16.87
2022-08-19T18:57:38.234Z,14.05
2022-08-19T18:59:09.998Z,14.86
2022-08-19T19:00:41.965Z,14.16
2022-08-19T19:02:18.409Z,13.00
2022-08-19T19:03:49.906Z,14.39
2022-08-19T19:05:21.307Z,16.40
2022-08-19T19:06:52.783Z,12.27
2022-08-19T19:08:26.967Z,12.98
2022-08-19T19:09:58.808Z,13.54
2022-08-19T19:11:30.357Z,12.21
2022-08-19T19:13:01.835Z,13.82
2022-08-19T19:14:48.723Z,13.66
2022-08-19T19:16:24.259Z,11.47
2022-08-19T19:18:20.837Z,12.47
2022-08-19T19:21:34.737Z,13.12
2022-08-19T19:23:06.538Z,11.87
2022-08-19T19:24:38.153Z,13.22
2022-08-19T19:26:09.877Z,12.56
2022-08-19T19:27:41.363Z,14.76
2022-08-19T19:29:12.871Z,13.75
2022-08-19T19:30:44.564Z,16.07
2022-08-19T19:32:16.072Z,14.68
2022-08-19T19:33:47.502Z,14.87
2022-08-19T19:35:18.956Z,16.24
2022-08-19T19:36:50.686Z,16.54
2022-08-19T19:38:22.100Z,15.71
2022-08-19T19:39:53.556Z,17.12
2022-08-19T19:41:25.170Z,16.28
2022-08-19T19:42:56.614Z,18.21
2022-08-19T19:44:30.935Z,17.92
2022-08-19T19:46:04.275Z,18.76
2022-08-19T19:47:39.394Z,18.19
2022-08-19T19:49:10.909Z,18.29
2022-08-19T19:50:42.361Z,17.65
2022-08-19T19:52:14.094Z,18.00
2022-08-19T19:53:45.860Z,18.47
2022-08-19T19:55:17.432Z,17.41
2022-08-19T19:56:49.008Z,19.68
2022-08-19T19:58:21.305Z,17.70
2022-08-19T20:00:00.733Z,18.87
2022-08-19T20:01:32.514Z,17.53
2022-08-19T20:03:05.174Z,18.84
2022-08-19T20:04:36.623Z,18.86
2022-08-19T20:06:08.142Z,19.36
2022-08-19T20:07:39.787Z,19.65
2022-08-19T20:09:11.256Z,21.88
2022-08-19T20:10:42.848Z,21.99
2022-08-19T20:12:14.535Z,19.97
2022-08-19T20:13:46.068Z,18.00
2022-08-19T20:15:17.545Z,20.57
2022-08-19T20:16:49.194Z,20.06
2022-08-19T20:18:20.759Z,19.28
2022-08-19T20:19:53.539Z,17.60
2022-08-19T20:21:24.964Z,17.57
2022-08-19T20:22:56.415Z,17.73
2022-08-19T20:24:27.941Z,20.50
2022-08-19T20:28:05.746Z,16.80
2022-08-19T20:29:41.519Z,17.99
2022-08-19T20:31:15.882Z,17.37
2022-08-19T20:32:47.349Z,26.81
2022-08-19T20:34:18.786Z,24.78
2022-08-19T20:35:51.993Z,17.67
2022-08-19T20:37:23.419Z,16.98
2022-08-19T20:38:55.057Z,19.64
2022-08-19T20:40:26.764Z,16.99
2022-08-19T20:41:58.370Z,16.33
2022-08-19T20:43:29.912Z,17.02
2022-08-19T20:45:01.449Z,16.61
2022-08-19T20:46:33.040Z,15.79
2022-08-19T20:48:05.167Z,15.76
2022-08-19T20:49:36.784Z,17.75
2022-08-19T20:51:08.261Z,15.20
2022-08-19T20:52:39.668Z,16.00
2022-08-19T20:54:11.119Z,18.34
2022-08-19T20:55:42.947Z,15.71
2022-08-19T20:57:14.950Z,17.86
2022-08-19T20:58:50.078Z,15.81
2022-08-19T21:00:26.009Z,14.80
2022-08-19T21:01:57.479Z,14.65
2022-08-19T21:03:29.107Z,17.60
2022-08-19T21:05:00.620Z,16.30
2022-08-19T21:06:32.154Z,15.46
2022-08-19T21:08:03.796Z,17.85
2022-08-19T21:09:35.369Z,15.89
2022-08-19T21:11:06.973Z,16.13
2022-08-19T21:12:38.370Z,15.08
2022-08-19T21:14:09.828Z,15.46
2022-08-19T21:15:41.288Z,16.20
2022-08-19T21:17:12.722Z,15.74
2022-08-19T21:18:44.453Z,14.30
2022-08-19T21:20:15.996Z,14.80
2022-08-19T21:21:47.482Z,15.17
2022-08-19T21:23:18.927Z,14.68
2022-08-19T21:24:50.425Z,14.46
2022-08-19T21:26:21.995Z,14.76
2022-08-19T21:27:53.431Z,14.20
2022-08-19T21:29:24.836Z,15.24
2022-08-19T21:30:56.277Z,13.57
2022-08-19T21:32:30.607Z,14.41
2022-08-19T21:34:02.007Z,13.73
2022-08-19T21:35:33.567Z,13.30
2022-08-19T21:37:05.178Z,12.90
2022-08-19T21:38:43.013Z,12.99
2022-08-19T21:40:14.553Z,12.67
2022-08-19T21:41:46.159Z,13.05
2022-08-19T21:43:17.946Z,13.03
2022-08-19T21:44:49.483Z,10.99
2022-08-19T21:46:20.914Z,11.36
2022-08-19T21:47:52.411Z,13.32
2022-08-19T21:49:23.907Z,12.18
2022-08-19T21:50:55.319Z,13.05
2022-08-19T21:52:26.733Z,11.64
2022-08-19T21:53:58.147Z,13.65
2022-08-19T21:55:29.567Z,11.08
2022-08-19T21:57:01.059Z,11.34
2022-08-19T21:58:32.499Z,11.85
2022-08-19T22:00:03.871Z,11.67
2022-08-19T22:01:35.526Z,13.26
2022-08-19T22:03:07.145Z,12.75
2022-08-19T22:04:38.737Z,11.11
2022-08-19T22:06:10.288Z,12.43
2022-08-19T22:07:41.731Z,12.86
2022-08-19T22:09:13.395Z,11.20
2022-08-19T22:10:45.212Z,10.42
2022-08-19T22:12:18.045Z,11.28
2022-08-19T22:13:50.477Z,11.37
2022-08-19T22:15:22.000Z,10.60
2022-08-19T22:16:53.398Z,11.55
2022-08-19T22:18:24.809Z,12.13
2022-08-19T22:19:56.352Z,11.05
2022-08-19T22:21:40.337Z,11.87
2022-08-19T22:23:12.571Z,9.75
2022-08-19T22:24:44.013Z,10.57
2022-08-19T22:26:15.727Z,12.58
2022-08-19T22:27:47.336Z,12.67
2022-08-19T22:29:18.764Z,11.95
2022-08-19T22:30:57.787Z,11.29
2022-08-19T22:32:29.181Z,12.24
2022-08-19T22:34:00.629Z,10.14
2022-08-19T22:35:32.053Z,10.78
2022-08-19T22:37:03.413Z,14.10
2022-08-19T22:38:34.860Z,13.67
2022-08-19T22:40:06.579Z,13.59
2022-08-19T22:41:38.082Z,10.86
2022-08-19T22:43:09.521Z,10.93
2022-08-19T22:44:40.972Z,10.50
2022-08-19T22:46:15.105Z,10.66
2022-08-19T22:47:48.926Z,11.64
2022-08-19T22:49:20.434Z,11.46
2022-08-19T22:50:51.927Z,12.32
2022-08-19T22:52:23.349Z,10.00
2022-08-19T22:53:54.969Z,11.69
2022-08-19T22:55:26.427Z,10.71
2022-08-19T22:56:57.837Z,11.49
2022-08-19T22:58:29.255Z,11.31
2022-08-19T23:00:01.213Z,11.59
2022-08-19T23:01:32.963Z,12.49
2022-08-19T23:03:04.489Z,10.72
2022-08-19T23:04:35.981Z,12.29
2022-08-19T23:06:07.376Z,13.37
2022-08-19T23:07:38.898Z,11.30
2022-08-19T23:09:10.276Z,11.86
2022-08-19T23:10:42.205Z,11.08
2022-08-19T23:12:13.866Z,11.40
2022-08-19T23:13:45.346Z,11.38
2022-08-19T23:15:16.753Z,11.89
2022-08-19T23:16:51.019Z,12.24
2022-08-19T23:18:23.182Z,11.47
2022-08-19T23:19:54.692Z,10.30
2022-08-19T23:21:26.088Z,9.74
2022-08-19T23:22:57.565Z,11.46
2022-08-19T23:24:29.020Z,10.11
2022-08-19T23:26:00.848Z,10.18
2022-08-19T23:27:32.314Z,9.69
2022-08-19T23:29:03.722Z,10.16
2022-08-19T23:30:35.258Z,10.84
2022-08-19T23:32:06.892Z,10.29
2022-08-19T23:33:51.397Z,12.39
2022-08-19T23:35:23.484Z,11.55
2022-08-19T23:36:54.942Z,13.62
2022-08-19T23:38:26.378Z,17.10
2022-08-19T23:39:57.793Z,14.87
2022-08-19T23:41:29.388Z,14.10
2022-08-19T23:43:00.857Z,13.48
2022-08-19T23:44:55.512Z,16.91
2022-08-19T23:46:28.139Z,18.56
2022-08-19T23:48:00.217Z,19.06
2022-08-19T23:49:31.797Z,20.10
2022-08-19T23:51:03.169Z,19.55
2022-08-19T23:52:34.658Z,21.39
2022-08-19T23:54:06.309Z,22.35
2022-08-19T23:55:38.837Z,23.37
2022-08-19T23:57:13.173Z,25.37
2022-08-19T23:58:45.687Z,27.05
